createdAt,value
2023-04-14T00:01:55.735Z,4.19
2023-04-14T00:04:23.685Z,4.20
2023-04-14T00:06:52.661Z,4.24
2023-04-14T00:09:20.591Z,4.25
2023-04-14T00:11:49.414Z,4.18
2023-04-14T00:14:17.353Z,4.06
2023-04-14T00:16:46.241Z,4.28
2023-04-14T00:19:15.911Z,4.09
2023-04-14T00:21:43.681Z,3.84
2023-04-14T00:24:11.483Z,3.92
2023-04-14T00:26:39.360Z,3.90
2023-04-14T00:29:07.193Z,3.64
2023-04-14T00:31:35.397Z,3.63
2023-04-14T00:34:03.276Z,3.56
2023-04-14T00:36:33.192Z,3.45
2023-04-14T00:39:02.157Z,3.34
2023-04-14T00:41:34.630Z,3.34
2023-04-14T00:44:02.969Z,3.45
2023-04-14T00:46:31.341Z,3.86
2023-04-14T00:48:59.456Z,3.91
2023-04-14T00:51:28.297Z,3.79
2023-04-14T00:53:59.166Z,3.41
2023-04-14T00:56:27.410Z,3.63
2023-04-14T00:58:55.545Z,3.62
2023-04-14T01:01:26.206Z,3.41
2023-04-14T01:03:54.261Z,3.72
2023-04-14T01:06:22.243Z,3.80
2023-04-14T01:08:51.280Z,3.87
2023-04-14T01:11:29.397Z,3.85
2023-04-14T01:14:08.747Z,3.99
2023-04-14T01:16:41.025Z,4.10
2023-04-14T01:19:28.672Z,4.08
2023-04-14T01:22:02.610Z,4.05
2023-04-14T01:25:01.350Z,3.83
2023-04-14T01:27:41.135Z,3.97
2023-04-14T01:30:28.511Z,3.93
2023-04-14T01:33:01.183Z,3.81
2023-04-14T01:35:38.008Z,4.16
2023-04-14T01:38:10.675Z,4.18
2023-04-14T01:40:42.219Z,4.05
2023-04-14T01:43:13.083Z,4.17
2023-04-14T01:45:46.562Z,4.16
2023-04-14T01:48:17.079Z,4.11
2023-04-14T01:50:48.260Z,4.06
2023-04-14T01:53:19.113Z,4.07
2023-04-14T01:55:50.536Z,4.02
2023-04-14T01:58:21.602Z,3.97
2023-04-14T02:00:51.657Z,4.05
2023-04-14T02:03:22.798Z,4.00
2023-04-14T02:05:53.447Z,3.92
2023-04-14T02:08:24.155Z,3.89
2023-04-14T02:10:54.936Z,3.94
2023-04-14T02:13:24.954Z,3.81
2023-04-14T02:15:53.373Z,3.94
2023-04-14T02:18:24.174Z,3.88
2023-04-14T02:20:55.001Z,3.82
2023-04-14T02:23:22.863Z,3.92
2023-04-14T02:25:54.946Z,4.02
2023-04-14T02:28:29.063Z,3.94
2023-04-14T02:30:59.583Z,4.00
2023-04-14T02:33:32.905Z,4.01
2023-04-14T02:36:03.776Z,3.92
2023-04-14T02:38:39.316Z,4.01
2023-04-14T02:41:11.325Z,3.93
2023-04-14T02:43:45.287Z,3.95
2023-04-14T02:46:17.709Z,3.80
2023-04-14T02:48:48.197Z,3.85
2023-04-14T02:51:18.970Z,3.61
2023-04-14T02:53:47.534Z,3.83
2023-04-14T02:56:22.982Z,3.56
2023-04-14T02:58:52.900Z,3.56
2023-04-14T03:01:22.927Z,3.58
2023-04-14T03:03:57.604Z,3.50
2023-04-14T03:06:28.504Z,3.51
2023-04-14T03:08:59.150Z,3.32
2023-04-14T03:11:29.196Z,3.21
2023-04-14T03:13:58.593Z,3.22
2023-04-14T03:16:29.284Z,3.43
2023-04-14T03:19:00.316Z,3.17
2023-04-14T03:21:30.372Z,3.16
2023-04-14T03:23:59.841Z,3.19
2023-04-14T03:26:31.349Z,3.34
2023-04-14T03:29:02.256Z,3.70
2023-04-14T03:31:34.751Z,3.79
2023-04-14T03:34:06.763Z,3.79
2023-04-14T03:36:41.232Z,4.29
2023-04-14T03:39:12.552Z,4.27
2023-04-14T03:41:47.735Z,4.02
2023-04-14T03:44:19.299Z,3.67
2023-04-14T03:46:50.347Z,3.77
2023-04-14T03:49:21.953Z,3.67
2023-04-14T03:51:57.372Z,3.68
2023-04-14T03:54:27.859Z,3.88
2023-04-14T03:56:57.438Z,3.78
2023-04-14T03:59:29.332Z,4.02
2023-04-14T04:01:58.487Z,3.93
2023-04-14T04:04:30.886Z,3.88
2023-04-14T04:07:00.414Z,3.87
2023-04-14T04:09:32.691Z,3.93
2023-04-14T04:12:02.178Z,4.04
2023-04-14T04:14:33.767Z,3.92
2023-04-14T04:17:07.110Z,3.67
2023-04-14T04:19:37.730Z,3.78
2023-04-14T04:22:07.224Z,4.18
2023-04-14T04:24:40.497Z,4.09
2023-04-14T04:27:26.549Z,3.98
2023-04-14T04:29:58.667Z,4.03
2023-04-14T04:32:27.247Z,4.27
2023-04-14T04:34:57.739Z,4.15
2023-04-14T04:37:28.937Z,4.12
2023-04-14T04:39:58.770Z,4.10
2023-04-14T04:42:27.785Z,4.15
2023-04-14T04:44:57.754Z,4.11
2023-04-14T04:47:26.167Z,4.32
2023-04-14T04:49:54.045Z,4.21
2023-04-14T04:52:23.220Z,4.31
2023-04-14T04:54:52.646Z,4.31
2023-04-14T04:57:20.670Z,4.10
2023-04-14T04:59:48.665Z,4.17
2023-04-14T05:02:16.543Z,4.24
2023-04-14T05:04:44.455Z,4.08
2023-04-14T05:07:12.304Z,4.03
2023-04-14T05:09:41.502Z,4.02
2023-04-14T05:12:09.517Z,4.26
2023-04-14T05:14:37.480Z,4.30
2023-04-14T05:17:05.291Z,4.51
2023-04-14T05:19:33.083Z,4.25
2023-04-14T05:22:01.028Z,4.17
2023-04-14T05:24:28.865Z,4.25
2023-04-14T05:27:13.061Z,4.17
2023-04-14T05:29:41.842Z,4.06
2023-04-14T05:32:10.664Z,4.02
2023-04-14T05:34:38.520Z,4.05
2023-04-14T05:37:06.333Z,4.15
2023-04-14T05:39:34.498Z,3.97
2023-04-14T05:42:03.685Z,3.94
2023-04-14T05:44:31.527Z,3.97
2023-04-14T05:46:59.321Z,4.08
2023-04-14T05:49:27.169Z,3.93
2023-04-14T05:51:56.057Z,3.81
2023-04-14T05:54:23.805Z,3.87
2023-04-14T05:56:51.569Z,3.93
2023-04-14T05:59:20.920Z,3.94
2023-04-14T06:01:48.842Z,3.88
2023-04-14T06:04:17.492Z,4.02
2023-04-14T06:06:45.700Z,4.31
2023-04-14T06:09:13.521Z,4.77
2023-04-14T06:11:42.427Z,4.56
2023-04-14T06:14:10.292Z,4.65
2023-04-14T06:16:39.532Z,4.42
2023-04-14T06:19:07.344Z,4.19
2023-04-14T06:21:35.218Z,4.02
2023-04-14T06:24:03.099Z,3.96
2023-04-14T06:26:31.346Z,3.91
2023-04-14T06:29:00.988Z,3.97
2023-04-14T06:31:29.086Z,3.99
2023-04-14T06:33:58.312Z,3.97
2023-04-14T06:36:27.117Z,4.02
2023-04-14T06:38:54.907Z,4.03
2023-04-14T06:41:22.754Z,3.92
2023-04-14T06:43:50.689Z,4.00
2023-04-14T06:46:19.024Z,3.99
2023-04-14T06:48:46.906Z,4.00
2023-04-14T06:51:16.130Z,4.20
2023-04-14T06:53:44.205Z,4.12
2023-04-14T06:56:12.115Z,4.14
2023-04-14T06:58:40.387Z,4.18
2023-04-14T07:01:08.274Z,4.21
2023-04-14T07:03:36.244Z,4.21
2023-04-14T07:06:05.178Z,4.17
2023-04-14T07:08:35.371Z,4.14
2023-04-14T07:11:04.644Z,4.26
2023-04-14T07:13:33.693Z,4.27
2023-04-14T07:16:02.282Z,4.29
2023-04-14T07:18:30.833Z,4.29
2023-04-14T07:20:59.175Z,4.51
2023-04-14T07:23:27.365Z,4.47
2023-04-14T07:25:57.802Z,4.45
2023-04-14T07:28:26.961Z,4.42
2023-04-14T07:30:55.102Z,4.53
2023-04-14T07:33:32.092Z,4.48
2023-04-14T07:36:02.762Z,4.57
2023-04-14T07:38:32.264Z,4.30
2023-04-14T07:41:04.533Z,4.33
2023-04-14T07:43:35.187Z,4.32
2023-04-14T07:46:05.479Z,4.33
2023-04-14T07:48:33.905Z,4.48
2023-04-14T07:51:01.705Z,4.64
2023-04-14T07:53:29.830Z,5.10
2023-04-14T07:55:59.595Z,5.53
2023-04-14T07:58:29.419Z,5.28
2023-04-14T08:00:58.301Z,5.37
2023-04-14T08:03:26.737Z,5.52
2023-04-14T08:05:54.757Z,5.51
2023-04-14T08:08:23.143Z,5.42
2023-04-14T08:10:54.702Z,5.44
2023-04-14T08:13:22.975Z,5.19
2023-04-14T08:15:52.470Z,5.62
2023-04-14T08:18:20.590Z,5.29
2023-04-14T08:20:48.653Z,5.34
2023-04-14T08:23:16.475Z,5.81
2023-04-14T08:25:44.613Z,5.66
2023-04-14T08:28:12.770Z,5.47
2023-04-14T08:30:41.427Z,5.37
2023-04-14T08:33:10.714Z,5.26
2023-04-14T08:35:42.520Z,5.19
2023-04-14T08:38:11.637Z,5.24
2023-04-14T08:40:41.190Z,5.60
2023-04-14T08:43:11.176Z,5.24
2023-04-14T08:45:41.513Z,5.42
2023-04-14T08:48:13.018Z,5.45
2023-04-14T08:50:50.410Z,5.99
2023-04-14T08:53:21.943Z,5.91
2023-04-14T08:55:51.663Z,5.83
2023-04-14T08:58:20.062Z,5.88
2023-04-14T09:00:49.317Z,5.74
2023-04-14T09:03:19.293Z,5.67
2023-04-14T09:05:48.874Z,5.91
2023-04-14T09:08:18.096Z,5.83
2023-04-14T09:10:46.692Z,5.81
2023-04-14T09:13:16.025Z,5.86
2023-04-14T09:15:44.132Z,5.98
2023-04-14T09:18:15.614Z,6.13
2023-04-14T09:21:28.724Z,5.98
2023-04-14T09:23:36.716Z,5.94
2023-04-14T09:26:09.190Z,6.00
2023-04-14T09:28:37.233Z,6.27
2023-04-14T09:31:06.096Z,6.20
2023-04-14T09:33:34.253Z,6.09
2023-04-14T09:36:03.595Z,6.00
2023-04-14T09:38:36.462Z,6.09
2023-04-14T09:41:04.965Z,6.24
2023-04-14T09:43:33.543Z,6.23
2023-04-14T09:46:06.925Z,6.21
2023-04-14T09:48:36.457Z,6.02
2023-04-14T09:51:07.282Z,6.29
2023-04-14T09:53:36.464Z,6.58
2023-04-14T09:56:06.493Z,6.42
2023-04-14T09:58:35.885Z,6.67
2023-04-14T10:01:05.729Z,6.75
2023-04-14T10:03:35.994Z,6.28
2023-04-14T10:06:07.874Z,6.44
2023-04-14T10:08:38.138Z,6.62
2023-04-14T10:11:20.192Z,6.38
2023-04-14T10:13:49.887Z,6.29
2023-04-14T10:16:18.712Z,6.27
2023-04-14T10:18:47.644Z,6.59
2023-04-14T10:21:17.670Z,6.55
2023-04-14T10:23:47.208Z,6.33
2023-04-14T10:26:15.800Z,6.48
2023-04-14T10:28:46.424Z,6.67
2023-04-14T10:31:20.278Z,6.77
2023-04-14T10:33:48.871Z,6.92
2023-04-14T10:36:26.445Z,7.08
2023-04-14T10:39:00.882Z,7.12
2023-04-14T10:41:29.329Z,6.97
2023-04-14T10:43:57.120Z,6.98
2023-04-14T10:46:26.055Z,7.23
2023-04-14T10:48:54.176Z,7.20
2023-04-14T10:51:22.407Z,7.27
2023-04-14T10:53:55.308Z,7.22
2023-04-14T10:56:24.527Z,7.58
2023-04-14T10:58:56.646Z,7.58
2023-04-14T11:01:26.696Z,7.45
2023-04-14T11:03:56.423Z,7.53
2023-04-14T11:06:52.323Z,7.98
2023-04-14T11:09:34.886Z,7.85
2023-04-14T11:12:23.284Z,7.93
2023-04-14T11:14:55.657Z,7.77
2023-04-14T11:17:24.335Z,7.70
2023-04-14T11:19:55.248Z,8.16
2023-04-14T11:22:38.961Z,8.19
2023-04-14T11:25:09.516Z,8.09
2023-04-14T11:27:37.354Z,8.39
2023-04-14T11:30:07.101Z,8.42
2023-04-14T11:32:46.557Z,8.68
2023-04-14T11:35:14.798Z,8.75
2023-04-14T11:37:42.873Z,8.55
2023-04-14T11:40:14.044Z,8.32
2023-04-14T11:42:46.501Z,8.83
2023-04-14T11:45:16.443Z,9.19
2023-04-14T11:47:49.013Z,8.85
2023-04-14T11:50:18.121Z,9.00
2023-04-14T11:52:47.461Z,9.36
2023-04-14T11:55:17.561Z,9.67
2023-04-14T11:57:47.224Z,9.73
2023-04-14T12:00:41.159Z,9.78
2023-04-14T12:03:09.433Z,8.60
2023-04-14T12:05:38.685Z,8.16
2023-04-14T12:08:09.047Z,8.05
2023-04-14T12:10:42.230Z,7.97
2023-04-14T12:13:11.488Z,7.76
2023-04-14T12:15:41.534Z,7.58
2023-04-14T12:18:11.516Z,7.61
2023-04-14T12:20:44.111Z,7.79
2023-04-14T12:23:12.438Z,7.86
2023-04-14T12:25:42.184Z,8.16
2023-04-14T12:28:10.231Z,8.32
2023-04-14T12:30:38.831Z,8.14
2023-04-14T12:33:12.017Z,7.95
2023-04-14T12:35:40.872Z,7.68
2023-04-14T12:38:13.452Z,7.51
2023-04-14T12:40:45.559Z,7.74
2023-04-14T12:43:13.960Z,7.95
2023-04-14T12:45:42.718Z,8.06
2023-04-14T12:48:11.273Z,8.03
2023-04-14T12:50:39.650Z,8.19
2023-04-14T12:53:26.074Z,8.75
2023-04-14T12:56:09.546Z,8.61
2023-04-14T12:58:38.874Z,8.36
2023-04-14T13:01:07.805Z,8.11
2023-04-14T13:03:44.885Z,8.01
2023-04-14T13:06:16.272Z,7.85
2023-04-14T13:08:45.812Z,7.65
2023-04-14T13:11:15.771Z,7.43
2023-04-14T13:13:45.484Z,7.21
2023-04-14T13:16:17.091Z,6.70
2023-04-14T13:18:46.472Z,6.03
2023-04-14T13:21:14.605Z,5.44
2023-04-14T13:23:43.569Z,5.18
2023-04-14T13:26:13.354Z,4.99
2023-04-14T13:28:42.924Z,5.27
2023-04-14T13:31:11.651Z,5.57
2023-04-14T13:33:39.552Z,5.99
2023-04-14T13:36:08.077Z,6.43
2023-04-14T13:38:36.449Z,6.60
2023-04-14T13:41:04.285Z,6.69
2023-04-14T13:43:33.078Z,6.76
2023-04-14T13:46:02.490Z,6.88
2023-04-14T13:48:32.622Z,7.01
2023-04-14T13:51:02.107Z,7.15
2023-04-14T13:53:29.990Z,7.64
2023-04-14T13:55:58.029Z,7.57
2023-04-14T13:58:26.364Z,7.62
2023-04-14T14:00:57.292Z,7.52
2023-04-14T14:03:28.475Z,7.62
2023-04-14T14:05:57.719Z,7.81
2023-04-14T14:08:26.135Z,7.90
2023-04-14T14:10:54.136Z,8.15
2023-04-14T14:13:22.078Z,8.45
2023-04-14T14:15:50.054Z,8.76
2023-04-14T14:18:18.027Z,9.10
2023-04-14T14:20:48.109Z,9.57
2023-04-14T14:23:16.227Z,9.41
2023-04-14T14:25:44.198Z,9.51
2023-04-14T14:28:13.547Z,9.67
2023-04-14T14:30:41.450Z,9.89
2023-04-14T14:33:09.536Z,9.26
2023-04-14T14:35:39.149Z,10.12
2023-04-14T14:38:08.402Z,9.79
2023-04-14T14:40:36.226Z,10.01
2023-04-14T14:43:04.103Z,9.85
2023-04-14T14:45:33.315Z,9.75
2023-04-14T14:48:01.880Z,9.92
2023-04-14T14:50:30.008Z,10.62
2023-04-14T14:52:57.905Z,10.24
2023-04-14T14:55:27.276Z,10.55
2023-04-14T14:57:55.395Z,10.57
2023-04-14T15:00:24.736Z,11.07
2023-04-14T15:02:53.512Z,11.21
2023-04-14T15:05:21.580Z,10.69
2023-04-14T15:07:49.745Z,10.68
2023-04-14T15:10:17.802Z,10.37
2023-04-14T15:12:47.007Z,10.68
2023-04-14T15:15:14.893Z,11.11
2023-04-14T15:17:42.888Z,10.92
2023-04-14T15:20:14.340Z,11.32
2023-04-14T15:22:42.257Z,11.59
2023-04-14T15:25:11.218Z,11.40
2023-04-14T15:27:39.194Z,11.14
2023-04-14T15:30:10.047Z,11.45
2023-04-14T15:32:38.060Z,10.74
2023-04-14T15:35:06.848Z,10.63
2023-04-14T15:37:35.150Z,10.63
2023-04-14T15:40:04.123Z,10.92
2023-04-14T15:42:32.099Z,10.53
2023-04-14T15:44:59.977Z,10.25
2023-04-14T15:47:29.163Z,10.22
2023-04-14T15:50:09.494Z,9.99
2023-04-14T15:52:39.144Z,10.11
2023-04-14T15:55:08.362Z,10.15
2023-04-14T15:57:36.288Z,9.95
2023-04-14T16:00:29.186Z,9.44
2023-04-14T16:02:58.677Z,9.43
2023-04-14T16:05:26.574Z,9.48
2023-04-14T16:07:54.371Z,9.38
2023-04-14T16:10:22.499Z,9.13
2023-04-14T16:12:50.627Z,9.22
2023-04-14T16:15:18.564Z,9.17
2023-04-14T16:17:46.573Z,9.03
2023-04-14T16:20:17.843Z,8.96
2023-04-14T16:22:46.448Z,8.87
2023-04-14T16:25:14.439Z,8.58
2023-04-14T16:27:42.770Z,8.49
2023-04-14T16:30:11.735Z,8.38
2023-04-14T16:32:39.841Z,8.35
2023-04-14T16:35:09.376Z,8.39
2023-04-14T16:37:38.829Z,8.52
2023-04-14T16:40:07.842Z,8.62
2023-04-14T16:42:37.581Z,8.69
2023-04-14T16:45:06.779Z,8.75
2023-04-14T16:47:34.703Z,8.85
2023-04-14T16:50:02.827Z,8.76
2023-04-14T16:52:31.251Z,8.81
2023-04-14T16:55:01.030Z,8.74
2023-04-14T16:57:29.043Z,8.80
2023-04-14T16:59:56.862Z,8.62
2023-04-14T17:02:24.937Z,8.69
2023-04-14T17:04:52.977Z,8.71
2023-04-14T17:07:20.906Z,8.79
2023-04-14T17:09:49.015Z,8.81
2023-04-14T17:12:18.406Z,8.83
2023-04-14T17:14:46.272Z,8.66
2023-04-14T17:17:14.112Z,8.25
2023-04-14T17:19:43.129Z,8.05
2023-04-14T17:22:11.011Z,7.97
2023-04-14T17:24:38.854Z,7.80
2023-04-14T17:27:06.804Z,7.67
2023-04-14T17:29:36.137Z,7.53
2023-04-14T17:32:04.473Z,7.47
2023-04-14T17:34:32.520Z,7.35
2023-04-14T17:37:00.587Z,7.39
2023-04-14T17:39:28.579Z,7.35
2023-04-14T17:41:58.152Z,7.21
2023-04-14T17:44:31.903Z,7.16
2023-04-14T17:47:02.996Z,7.12
2023-04-14T17:49:31.520Z,6.99
2023-04-14T17:51:59.610Z,6.94
2023-04-14T17:54:27.628Z,6.75
2023-04-14T17:56:56.729Z,6.73
2023-04-14T17:59:24.669Z,6.61
2023-04-14T18:01:52.750Z,6.50
2023-04-14T18:04:22.186Z,6.48
2023-04-14T18:06:50.229Z,6.43
2023-04-14T18:09:18.144Z,6.37
2023-04-14T18:11:46.393Z,6.24
2023-04-14T18:14:14.389Z,6.22
2023-04-14T18:16:42.463Z,6.13
2023-04-14T18:19:15.729Z,5.90
2023-04-14T18:21:45.356Z,6.09
2023-04-14T18:26:45.025Z,6.03
2023-04-14T18:29:13.435Z,5.96
2023-04-14T18:31:42.633Z,5.93
2023-04-14T18:34:12.637Z,5.90
2023-04-14T18:36:40.680Z,5.97
2023-04-14T18:39:10.565Z,5.82
2023-04-14T18:41:38.804Z,5.86
2023-04-14T18:44:07.553Z,5.88
2023-04-14T18:46:35.989Z,5.90
2023-04-14T18:49:06.760Z,5.92
2023-04-14T18:51:40.339Z,5.99
2023-04-14T18:54:08.615Z,5.97
2023-04-14T18:56:38.264Z,5.75
2023-04-14T18:59:07.649Z,5.88
2023-04-14T19:01:36.058Z,5.73
2023-04-14T19:04:05.992Z,5.81
2023-04-14T19:06:34.065Z,5.91
2023-04-14T19:09:04.269Z,5.93
2023-04-14T19:11:36.055Z,5.79
2023-04-14T19:14:06.718Z,5.87
2023-04-14T19:16:34.857Z,5.96
2023-04-14T19:19:10.646Z,5.96
2023-04-14T19:21:40.640Z,5.80
2023-04-14T19:24:08.611Z,5.94
2023-04-14T19:26:40.590Z,5.89
2023-04-14T19:29:09.900Z,5.88
2023-04-14T19:31:39.469Z,5.97
2023-04-14T19:34:07.437Z,5.91
2023-04-14T19:36:35.358Z,5.79
2023-04-14T19:39:03.959Z,5.87
2023-04-14T19:41:33.785Z,6.00
2023-04-14T19:44:04.025Z,5.95
2023-04-14T19:46:35.645Z,6.03
2023-04-14T19:49:04.042Z,6.09
2023-04-14T19:51:32.947Z,5.94
2023-04-14T19:54:01.465Z,6.08
2023-04-14T19:56:29.868Z,6.14
2023-04-14T19:58:58.342Z,6.22
2023-04-14T20:01:26.696Z,6.30
2023-04-14T20:04:04.445Z,6.29
2023-04-14T20:06:37.585Z,6.32
2023-04-14T20:09:05.589Z,6.36
2023-04-14T20:11:33.346Z,6.32
2023-04-14T20:14:01.191Z,6.36
2023-04-14T20:16:31.068Z,6.36
2023-04-14T20:19:00.856Z,6.37
2023-04-14T20:21:29.600Z,6.43
2023-04-14T20:23:57.660Z,6.37
2023-04-14T20:26:25.468Z,6.36
2023-04-14T20:28:53.565Z,6.39
2023-04-14T20:31:22.278Z,6.22
2023-04-14T20:33:51.046Z,6.29
2023-04-14T20:36:20.584Z,6.17
2023-04-14T20:38:48.629Z,6.12
2023-04-14T20:41:16.531Z,6.14
2023-04-14T20:43:44.605Z,6.12
2023-04-14T20:46:13.593Z,6.16
2023-04-14T20:48:42.081Z,6.16
2023-04-14T20:51:09.876Z,6.10
2023-04-14T20:53:39.066Z,6.09
2023-04-14T20:56:07.235Z,6.09
2023-04-14T20:58:35.188Z,6.17
2023-04-14T21:01:03.457Z,6.24
2023-04-14T21:03:34.366Z,6.12
2023-04-14T21:06:02.570Z,6.13
2023-04-14T21:08:30.669Z,6.10
2023-04-14T21:11:15.163Z,6.09
2023-04-14T21:15:24.833Z,6.07
2023-04-14T21:16:48.148Z,5.92
2023-04-14T21:19:19.423Z,5.90
2023-04-14T21:21:47.725Z,5.80
2023-04-14T21:24:15.653Z,5.86
2023-04-14T21:26:44.965Z,5.82
2023-04-14T21:29:12.812Z,5.76
2023-04-14T21:31:41.010Z,5.79
2023-04-14T21:34:08.949Z,5.73
2023-04-14T21:36:37.328Z,5.78
2023-04-14T21:39:05.466Z,5.82
2023-04-14T21:41:33.422Z,5.81
2023-04-14T21:44:03.468Z,5.79
2023-04-14T21:46:31.547Z,5.82
2023-04-14T21:48:59.477Z,5.86
2023-04-14T21:51:27.552Z,5.86
2023-04-14T21:53:55.737Z,5.77
2023-04-14T21:56:23.862Z,5.70
2023-04-14T21:58:51.864Z,5.62
2023-04-14T22:01:23.465Z,5.69
2023-04-14T22:04:22.156Z,5.63
2023-04-14T22:06:57.404Z,5.67
2023-04-14T22:09:25.307Z,5.67
2023-04-14T22:11:55.251Z,5.65
2023-04-14T22:14:23.550Z,5.68
2023-04-14T22:16:53.338Z,5.65
2023-04-14T22:19:21.305Z,5.63
2023-04-14T22:21:49.778Z,5.63
2023-04-14T22:24:17.817Z,5.59
2023-04-14T22:26:45.860Z,5.60
2023-04-14T22:29:14.105Z,5.64
2023-04-14T22:31:42.227Z,5.61
2023-04-14T22:34:11.895Z,5.67
2023-04-14T22:36:39.958Z,5.81
2023-04-14T22:39:08.301Z,5.73
2023-04-14T22:41:36.084Z,5.77
2023-04-14T22:44:05.899Z,5.64
2023-04-14T22:46:34.432Z,5.69
2023-04-14T22:49:03.352Z,5.60
2023-04-14T22:51:32.959Z,5.59
2023-04-14T22:54:00.754Z,5.56
2023-04-14T22:56:29.326Z,5.57
2023-04-14T22:58:58.392Z,5.58
2023-04-14T23:01:48.310Z,5.59
2023-04-14T23:04:25.203Z,6.83
2023-04-14T23:06:54.628Z,8.82
2023-04-14T23:09:22.464Z,8.75
2023-04-14T23:11:50.268Z,8.00
2023-04-14T23:14:18.132Z,7.30
2023-04-14T23:16:45.905Z,6.69
2023-04-14T23:19:13.656Z,6.36
2023-04-14T23:21:42.058Z,6.21
2023-04-14T23:24:11.197Z,6.12
2023-04-14T23:26:38.973Z,6.06
2023-04-14T23:29:06.759Z,6.07
2023-04-14T23:31:49.804Z,6.13
2023-04-14T23:34:17.643Z,6.08
2023-04-14T23:36:47.255Z,6.07
2023-04-14T23:39:16.409Z,6.10
2023-04-14T23:41:44.164Z,6.03
2023-04-14T23:44:11.940Z,6.06
2023-04-14T23:46:40.667Z,6.03
2023-04-14T23:49:23.174Z,6.04
2023-04-14T23:51:52.740Z,6.02
2023-04-14T23:54:21.829Z,6.00
2023-04-14T23:56:49.627Z,5.95
2023-04-14T23:59:17.675Z,5.86
